AQQ10 IFIS: Internet Flight Information System
logo dgac
Martes 21 de Septiembre del 2021
Buscar por aerodromo o helipuerto
Ingrese nombre de aeródromo, localidad o designador OACI:
METAR del 21-09-2021 a las 10:00 UTC
Para mayor información visite www.meteochile.cl
METAR SCJO 211000Z AUTO VRB05KT 9999 OVC008/// 08/06 Q1019
Viento: dirección variable, velocidad 5 nudos
Visibilidad: 10 km o más
Nubes: Cubierto a 800 pies sobre el nivel del aeródromo, Tipo de nubes no disponible
Temperatura: 8 °C
Rocío: 6 °C
Humedad_relativa: 87%
Presión: 1019 hPa
METAR del 21-09-2021 a las 09:00 UTC
Para mayor información visite www.meteochile.cl
METAR SCJO 210900Z AUTO 18005KT 130V260 9999 OVC006/// 07/06 Q1019
Viento: dirección 180 grados, velocidad 5 nudos
Viento con dirección variable entre 130 y 260 grados
Visibilidad: 10 km o más
Nubes: Cubierto a 600 pies sobre el nivel del aeródromo, Tipo de nubes no disponible
Temperatura: 7 °C
Rocío: 6 °C
Humedad_relativa: 93%
Presión: 1019 hPa
METAR del 21-09-2021 a las 08:00 UTC
Para mayor información visite www.meteochile.cl
METAR SCJO 210800Z AUTO 18006KT 130V240 9999 OVC005/// 07/06 Q1020
Viento: dirección 180 grados, velocidad 6 nudos
Viento con dirección variable entre 130 y 240 grados
Visibilidad: 10 km o más
Nubes: Cubierto a 500 pies sobre el nivel del aeródromo, Tipo de nubes no disponible
Temperatura: 7 °C
Rocío: 6 °C
Humedad_relativa: 93%
Presión: 1020 hPa
METAR del 21-09-2021 a las 07:00 UTC
Para mayor información visite www.meteochile.cl
METAR SCJO 210700Z AUTO 18006KT 140V240 9999 OVC007/// 07/06 Q1022
Viento: dirección 180 grados, velocidad 6 nudos
Viento con dirección variable entre 140 y 240 grados
Visibilidad: 10 km o más
Nubes: Cubierto a 700 pies sobre el nivel del aeródromo, Tipo de nubes no disponible
Temperatura: 7 °C
Rocío: 6 °C
Humedad_relativa: 93%
Presión: 1022 hPa
METAR del 21-09-2021 a las 06:00 UTC
Para mayor información visite www.meteochile.cl
METAR SCJO 210600Z AUTO 17006KT 140V220 9999 OVC008/// 07/05 Q1023
Viento: dirección 170 grados, velocidad 6 nudos
Viento con dirección variable entre 140 y 220 grados
Visibilidad: 10 km o más
Nubes: Cubierto a 800 pies sobre el nivel del aeródromo, Tipo de nubes no disponible
Temperatura: 7 °C
Rocío: 5 °C
Humedad_relativa: 87%
Presión: 1023 hPa
SPECI del 21-09-2021 a las 05:30 UTC
Para mayor información visite www.meteochile.cl
SPECI SCJO 210530Z AUTO 18005KT 130V220 9999 OVC009/// 07/05 Q1023
Viento: dirección 180 grados, velocidad 5 nudos
Viento con dirección variable entre 130 y 220 grados
Visibilidad: 10 km o más
Nubes: Cubierto a 900 pies sobre el nivel del aeródromo, Tipo de nubes no disponible
Temperatura: 7 °C
Rocío: 5 °C
Humedad_relativa: 87%
Presión: 1023 hPa
SPECI del 21-09-2021 a las 05:30 UTC
Para mayor información visite www.meteochile.cl
SPECI SCJO 210530Z AUTO 18005KT 130V220 9999 OVC009/// 07/05 Q1023
Viento: dirección 180 grados, velocidad 5 nudos
Viento con dirección variable entre 130 y 220 grados
Visibilidad: 10 km o más
Nubes: Cubierto a 900 pies sobre el nivel del aeródromo, Tipo de nubes no disponible
Temperatura: 7 °C
Rocío: 5 °C
Humedad_relativa: 87%
Presión: 1023 hPa
SPECI del 21-09-2021 a las 05:02 UTC
Para mayor información visite www.meteochile.cl
SPECI SCJO 210502Z AUTO 18004KT 150V210 9999 BKN012/// 06/05 Q1023
Viento: dirección 180 grados, velocidad 4 nudos
Viento con dirección variable entre 150 y 210 grados
Visibilidad: 10 km o más
Nubes: Nublado a 1200 pies sobre el nivel del aeródromo, Tipo de nubes no disponible
Temperatura: 6 °C
Rocío: 5 °C
Humedad_relativa: 93%
Presión: 1023 hPa
SPECI del 21-09-2021 a las 05:02 UTC
Para mayor información visite www.meteochile.cl
SPECI SCJO 210502Z AUTO 18004KT 150V210 9999 BKN012/// 06/05 Q1023
Viento: dirección 180 grados, velocidad 4 nudos
Viento con dirección variable entre 150 y 210 grados
Visibilidad: 10 km o más
Nubes: Nublado a 1200 pies sobre el nivel del aeródromo, Tipo de nubes no disponible
Temperatura: 6 °C
Rocío: 5 °C
Humedad_relativa: 93%
Presión: 1023 hPa
SPECI del 21-09-2021 a las 05:02 UTC
Para mayor información visite www.meteochile.cl
SPECI SCJO 210502Z AUTO 18004KT 150V210 9999 BKN012/// 06/05 Q1023
Viento: dirección 180 grados, velocidad 4 nudos
Viento con dirección variable entre 150 y 210 grados
Visibilidad: 10 km o más
Nubes: Nublado a 1200 pies sobre el nivel del aeródromo, Tipo de nubes no disponible
Temperatura: 6 °C
Rocío: 5 °C
Humedad_relativa: 93%
Presión: 1023 hPa